createdAt,value
2018-12-29T00:04:51.848Z,60.97
2018-12-29T00:09:56.879Z,68.17
2018-12-29T00:15:01.825Z,53.47
2018-12-29T00:20:06.896Z,58.30
2018-12-29T00:25:11.875Z,57.47
2018-12-29T00:30:16.917Z,59.13
2018-12-29T00:35:21.908Z,50.67
2018-12-29T00:40:26.910Z,53.83
2018-12-29T00:45:32.194Z,63.07
2018-12-29T00:50:37.183Z,50.57
2018-12-29T00:55:42.222Z,48.40
2018-12-29T01:00:47.196Z,50.03
2018-12-29T01:05:52.171Z,68.70
2018-12-29T01:10:57.169Z,51.80
2018-12-29T01:16:02.140Z,49.23
2018-12-29T01:21:07.128Z,50.87
2018-12-29T01:26:12.171Z,56.70
2018-12-29T01:31:17.091Z,40.97
2018-12-29T01:36:22.107Z,43.20
2018-12-29T01:41:27.123Z,43.47
2018-12-29T01:46:32.116Z,43.93
2018-12-29T01:51:37.097Z,39.10
2018-12-29T01:56:42.082Z,44.90
2018-12-29T02:01:47.063Z,46.50
2018-12-29T02:06:52.051Z,38.67
2018-12-29T02:11:57.040Z,37.60
2018-12-29T02:17:02.012Z,40.77
2018-12-29T02:22:06.996Z,35.10
2018-12-29T02:27:11.995Z,35.33
2018-12-29T02:32:16.971Z,33.83
2018-12-29T02:37:21.945Z,40.57
2018-12-29T02:42:26.984Z,37.67
2018-12-29T02:47:31.981Z,35.33
2018-12-29T02:52:36.959Z,41.07
2018-12-29T02:57:41.957Z,44.53
2018-12-29T03:02:46.948Z,41.10
2018-12-29T03:07:54.432Z,61.63
2018-12-29T03:12:59.411Z,47.10
2018-12-29T03:18:04.483Z,43.73
2018-12-29T03:23:09.473Z,41.10
2018-12-29T03:28:14.548Z,44.53
2018-12-29T03:33:19.529Z,44.03
2018-12-29T03:38:24.548Z,42.90
2018-12-29T03:43:29.558Z,47.40
2018-12-29T03:48:34.555Z,37.93
2018-12-29T03:53:39.634Z,42.47
2018-12-29T03:58:44.653Z,42.80
2018-12-29T04:03:49.677Z,39.83
2018-12-29T04:09:41.156Z,43.17
2018-12-29T04:14:46.271Z,40.23
2018-12-29T04:19:51.284Z,49.40
2018-12-29T04:24:56.319Z,50.23
2018-12-29T04:30:01.304Z,47.47
2018-12-29T04:35:06.476Z,50.63
2018-12-29T04:40:11.985Z,53.27
2018-12-29T04:45:16.971Z,50.70
2018-12-29T04:50:21.999Z,52.53
2018-12-29T04:55:27.039Z,53.50
2018-12-29T05:00:32.012Z,57.17
2018-12-29T05:05:36.999Z,50.03
2018-12-29T05:10:41.974Z,53.23
2018-12-29T05:15:46.960Z,55.57
2018-12-29T05:20:52.107Z,51.87
2018-12-29T05:25:57.100Z,51.13
2018-12-29T05:31:02.079Z,61.53
2018-12-29T05:36:07.068Z,61.90
2018-12-29T05:41:12.096Z,84.27
2018-12-29T05:46:20.569Z,96.93
2018-12-29T05:51:23.721Z,111.10
2018-12-29T05:56:28.708Z,117.20
2018-12-29T06:01:33.699Z,139.40
2018-12-29T06:06:38.683Z,106.33
2018-12-29T06:11:43.683Z,118.57
2018-12-29T06:16:48.675Z,134.13
2018-12-29T06:21:53.665Z,167.90
2018-12-29T06:26:58.648Z,178.47
2018-12-29T06:32:03.940Z,165.80
2018-12-29T06:37:08.964Z,148.23
2018-12-29T06:42:13.975Z,146.87
2018-12-29T06:47:18.967Z,106.90
2018-12-29T06:52:23.952Z,140.43
2018-12-29T06:57:28.936Z,152.43
2018-12-29T07:02:33.959Z,130.30
2018-12-29T07:07:38.940Z,155.93
2018-12-29T07:12:43.936Z,171.90
2018-12-29T07:17:48.976Z,170.73
2018-12-29T07:22:53.973Z,117.87
2018-12-29T07:27:59.005Z,104.43
2018-12-29T07:33:04.016Z,108.63
2018-12-29T07:38:09.204Z,117.03
2018-12-29T07:43:14.222Z,144.27
2018-12-29T07:48:19.316Z,153.10
2018-12-29T07:53:24.309Z,118.87
2018-12-29T07:58:29.419Z,115.90
2018-12-29T08:03:34.456Z,92.90
2018-12-29T08:08:39.517Z,118.70
2018-12-29T08:13:44.492Z,102.70
2018-12-29T08:18:49.621Z,86.13
2018-12-29T08:23:54.613Z,87.30
2018-12-29T08:28:59.735Z,92.70
2018-12-29T08:34:04.714Z,81.03
2018-12-29T08:39:09.837Z,77.57
2018-12-29T08:44:14.880Z,77.10
2018-12-29T08:49:19.873Z,66.33
2018-12-29T08:54:24.867Z,87.17
2018-12-29T08:59:29.872Z,89.03
2018-12-29T09:04:34.861Z,77.30
2018-12-29T09:09:41.692Z,98.17
2018-12-29T09:14:46.693Z,74.97
2018-12-29T09:19:51.689Z,72.23
2018-12-29T09:24:56.697Z,76.67
2018-12-29T09:30:01.671Z,52.60
2018-12-29T09:35:06.778Z,44.00
2018-12-29T09:40:11.777Z,43.83
2018-12-29T09:45:16.797Z,51.93
2018-12-29T09:50:21.779Z,73.10
2018-12-29T09:55:26.783Z,101.97
2018-12-29T10:00:31.765Z,111.80
2018-12-29T10:05:36.755Z,104.40
2018-12-29T10:10:41.757Z,127.90
2018-12-29T10:15:48.641Z,142.20
2018-12-29T10:20:53.601Z,152.10
2018-12-29T10:25:58.607Z,173.43
2018-12-29T10:31:03.593Z,241.50
2018-12-29T10:36:08.590Z,236.57
2018-12-29T10:41:13.588Z,276.50
2018-12-29T10:46:18.615Z,223.80
2018-12-29T10:51:23.652Z,198.50
2018-12-29T10:56:28.631Z,190.10
2018-12-29T11:01:33.652Z,191.00
2018-12-29T11:06:38.648Z,115.50
2018-12-29T11:11:43.690Z,104.97
2018-12-29T11:16:49.839Z,138.73
2018-12-29T11:21:54.822Z,140.67
2018-12-29T11:26:59.987Z,111.77
2018-12-29T11:32:04.977Z,127.00
2018-12-29T11:37:09.957Z,132.83
2018-12-29T11:42:15.020Z,148.93
2018-12-29T11:47:20.004Z,124.37
2018-12-29T11:52:25.045Z,134.43
2018-12-29T11:57:30.046Z,138.90
2018-12-29T12:02:38.112Z,161.03
2018-12-29T12:07:43.083Z,154.27
2018-12-29T12:12:48.068Z,143.37
2018-12-29T12:17:57.537Z,152.00
2018-12-29T12:22:59.745Z,123.07
2018-12-29T12:28:05.011Z,131.97
2018-12-29T12:33:10.001Z,127.50
2018-12-29T12:38:15.062Z,128.73
2018-12-29T12:43:20.054Z,170.07
2018-12-29T12:48:25.592Z,199.83
2018-12-29T12:53:30.877Z,314.87
2018-12-29T12:58:36.270Z,323.70
2018-12-29T13:03:41.976Z,244.97
2018-12-29T13:08:47.232Z,153.27
2018-12-29T13:13:52.269Z,141.03
2018-12-29T13:18:57.304Z,146.27
2018-12-29T13:24:02.292Z,105.67
2018-12-29T13:29:07.446Z,79.97
2018-12-29T13:34:12.438Z,112.57
2018-12-29T13:39:17.441Z,144.43
2018-12-29T13:44:22.443Z,59.63
2018-12-29T13:49:27.437Z,166.83
2018-12-29T13:59:43.195Z,277.47
2018-12-29T14:04:48.155Z,269.60
2018-12-29T14:09:53.163Z,262.57
2018-12-29T14:15:00.967Z,302.77
2018-12-29T14:20:06.973Z,309.23
2018-12-29T14:25:11.984Z,382.07
2018-12-29T14:30:17.091Z,284.53
2018-12-29T14:35:22.104Z,350.47
2018-12-29T14:40:27.116Z,215.17
2018-12-29T14:45:32.839Z,183.47
2018-12-29T14:50:38.209Z,261.97
2018-12-29T14:55:43.312Z,208.50
2018-12-29T15:00:48.331Z,232.37
2018-12-29T15:05:53.363Z,212.17
2018-12-29T15:10:58.773Z,192.73
2018-12-29T15:16:04.086Z,275.03
2018-12-29T15:21:09.091Z,220.60
2018-12-29T15:26:14.083Z,229.53
2018-12-29T15:31:19.146Z,260.33
2018-12-29T15:36:24.142Z,213.23
2018-12-29T15:41:29.127Z,228.80
2018-12-29T15:46:34.425Z,350.90
2018-12-29T15:51:39.407Z,257.13
2018-12-29T15:56:44.400Z,358.40
2018-12-29T16:01:49.409Z,369.97
2018-12-29T16:06:54.427Z,297.67
2018-12-29T16:12:00.038Z,318.97
2018-12-29T16:17:05.066Z,327.63
2018-12-29T16:22:10.129Z,256.63
2018-12-29T16:27:15.130Z,176.30
2018-12-29T16:32:20.223Z,291.27
2018-12-29T16:37:25.217Z,146.47
2018-12-29T16:42:30.222Z,173.33
2018-12-29T16:47:35.252Z,146.10
2018-12-29T16:52:40.259Z,178.40
2018-12-29T16:57:45.764Z,155.03
2018-12-29T17:02:50.784Z,153.17
2018-12-29T17:07:56.080Z,88.87
2018-12-29T17:13:01.074Z,53.20
2018-12-29T17:18:06.218Z,152.97
2018-12-29T17:23:12.517Z,116.03
2018-12-29T17:28:18.184Z,299.87
2018-12-29T17:33:23.431Z,148.13
2018-12-29T17:38:28.462Z,186.90
2018-12-29T17:43:33.508Z,365.83
2018-12-29T17:48:38.665Z,171.77
2018-12-29T17:53:48.003Z,207.10
2018-12-29T17:58:50.319Z,142.47
2018-12-29T18:03:55.328Z,173.30
2018-12-29T18:09:00.691Z,70.97
2018-12-29T18:14:05.765Z,303.73
2018-12-29T18:19:10.869Z,89.90
2018-12-29T18:24:15.875Z,106.43
2018-12-29T18:29:20.869Z,163.27
2018-12-29T18:34:26.365Z,135.40
2018-12-29T18:39:31.369Z,97.33
2018-12-29T18:44:36.343Z,113.07
2018-12-29T18:49:41.352Z,168.30
2018-12-29T18:54:46.405Z,90.97
2018-12-29T18:59:51.411Z,181.60
2018-12-29T19:04:56.395Z,72.67
2018-12-29T19:10:01.802Z,270.03
2018-12-29T19:15:07.428Z,188.57
2018-12-29T19:20:12.864Z,183.10
2018-12-29T19:25:17.899Z,101.27
2018-12-29T19:30:22.917Z,282.27
2018-12-29T19:35:28.299Z,238.47
2018-12-29T19:40:33.304Z,169.67
2018-12-29T19:45:38.777Z,162.03
2018-12-29T19:50:43.780Z,249.80
2018-12-29T19:55:49.083Z,329.00
2018-12-29T20:00:54.092Z,166.53
2018-12-29T20:05:59.074Z,165.60
2018-12-29T20:11:04.288Z,209.03
2018-12-29T20:16:09.308Z,290.87
2018-12-29T20:21:14.297Z,157.10
2018-12-29T20:26:19.301Z,117.17
2018-12-29T20:31:24.344Z,136.67
2018-12-29T20:36:29.332Z,192.57
2018-12-29T20:41:34.332Z,162.10
2018-12-29T20:46:39.317Z,245.73
2018-12-29T20:51:44.320Z,171.47
2018-12-29T20:56:49.319Z,195.23
2018-12-29T21:01:54.309Z,166.07
2018-12-29T21:06:59.314Z,126.33
2018-12-29T21:12:04.310Z,206.73
2018-12-29T21:17:10.793Z,252.77
2018-12-29T21:22:15.791Z,156.47
2018-12-29T21:27:20.801Z,134.87
2018-12-29T21:32:25.784Z,99.57
2018-12-29T21:37:30.809Z,263.17
2018-12-29T21:42:35.796Z,84.70
2018-12-29T21:47:40.775Z,124.53
2018-12-29T21:52:45.768Z,238.73
2018-12-29T21:57:50.952Z,83.80
2018-12-29T22:02:55.935Z,217.57
2018-12-29T22:08:01.610Z,295.83
2018-12-29T22:13:06.604Z,163.13
2018-12-29T22:18:11.887Z,204.20
2018-12-29T22:23:16.880Z,123.30
2018-12-29T22:28:22.144Z,115.90
2018-12-29T22:33:27.183Z,123.27
2018-12-29T22:38:32.164Z,83.70
2018-12-29T22:43:37.152Z,46.33
2018-12-29T22:48:42.137Z,68.33
2018-12-29T22:53:47.136Z,134.33
2018-12-29T22:58:52.141Z,70.47
2018-12-29T23:03:57.138Z,78.07
2018-12-29T23:09:02.256Z,84.73
2018-12-29T23:14:07.318Z,124.20
2018-12-29T23:19:12.396Z,152.17
2018-12-29T23:24:17.401Z,116.67
2018-12-29T23:29:22.427Z,152.53
2018-12-29T23:34:29.013Z,73.30
2018-12-29T23:39:33.992Z,49.10
2018-12-29T23:44:39.347Z,46.67
2018-12-29T23:49:44.307Z,52.00
2018-12-29T23:54:49.807Z,63.77
2018-12-29T23:59:55.033Z,54.73
